Tiempo atmosférico en la estación meteorológica de Navalmoral De La Mata, Cáceres (269 m.)



Fecha
DESCASC
Temp. máxima en grados centígrados (hora)
DESCASC
Temp. mínima en grados centígrados (hora)
DESCASC
Temp. media en grados centígrados
DESCASC
Racha de viento máxima en m/sg (hora)
DESCASC
Velocidad máxima media en intervalos de 10 minutos(hora)
DESCASC
Precipitaciones diarias en mm
DESCASC
Precipitaciones de 00:00 a 06:00 en mm
DESCASC
Precipitaciones de 06:00 a 12:00 en mm
DESCASC
Precipitaciones de 12:00 a 18:00 en mm
DESCASC
Precipitaciones de 18:00 a 24:00 en mm
DESCASC
22-11-2020 16.4 (16:20) 4.2 (07:30) 10.3 6.39 (11:40) 3.61 (11:40) 0 0 0 0 0
21-11-2020 18 (15:20) 4.5 (08:20) 11.3 7.22 (12:10) 3.89 (13:10) 0 0 0 0 0
20-11-2020 19 (15:10) 7.2 (23:40) 13.1 8.33 (14:30) 4.17 (14:20) 0.2 0 0.2 0 0
19-11-2020 19.6 (16:30) 9.2 (00:00) 14.4 5 (01:10) 2.78 (02:30) 0 0 0 0 0
18-11-2020 13.5 (16:50) 10.2 (00:00) 11.8 6.67 (11:30) 3.89 (09:30) 0.2 0.2 0 0 0
17-11-2020 18.5 (17:40) 8.7 (00:00) 13.6 3.61 (10:40) 2.22 (10:50) 0.2 0.2 0 0 0
16-11-2020 20.4 (16:00) 10.3 (00:00) 15.3 5.83 (07:20) 3.06 (06:30) 0 0 0 0 0
15-11-2020 17.9 (16:00) 13.5 (00:00) 15.7 4.72 (14:30) 1.94 (15:40) 2.8 2.4 0.4 0 0
14-11-2020 14.7 (15:40) 12 (00:00) 13.3 5.83 (06:30) 3.06 (06:30) 3.6 0.8 2.2 0 0.6
13-11-2020 16.6 (15:40) 7.7 (00:00) 12.2 6.67 (12:30) 3.89 (13:30) 0 0 0 0 0
12-11-2020 17.2 (16:10) 9.2 (00:00) 13.2 6.39 (12:10) 3.61 (12:50) 0 0 0 0 0
11-11-2020 17.7 (15:40) 7.2 (00:00) 12.5 6.39 (11:50) 3.61 (11:50) 0.2 0 0.2 0 0
10-11-2020 18.9 (16:10) 6.9 (00:00) 12.9 5.28 (15:20) 3.33 (15:20) 0 0 0 0 0
09-11-2020 19.3 (15:40) 9.7 (00:00) 14.5 6.39 (15:50) 3.33 (16:50) 7.4 7.2 0.2 0 0
08-11-2020 15.7 (14:40) 10.9 (00:00) 13.3 8.61 (19:40) 4.72 (12:30) 20.6 0 0 0 20.6
07-11-2020 18.9 (15:30) 12.5 (00:00) 15.7 10.56 (13:10) 5.83 (13:30) 5.6 5.6 0 0 0
06-11-2020 19.7 (15:50) 11.8 (00:00) 15.8 14.17 (09:20) 8.06 (09:20) 4.4 0.2 0.4 2.4 1.4
05-11-2020 -- (--) -- (--) -- 16.11 (05:50) 7.5 (06:00) 24.4 5.4 6.4 12.2 0.4
04-11-2020 -- (--) -- (--) -- 10.28 (23:50) 5.83 (18:50) 30.2 0 8.4 9.2 12.6
03-11-2020 -- (--) -- (--) -- 8.61 (22:20) 4.44 (22:20) -- 0 0 -- 0
02-11-2020 -- (--) -- (--) -- 3.33 (20:30) 1.94 (20:40) 0 0 0 0 0
01-11-2020 -- (--) -- (--) -- 4.17 (15:00) 1.94 (23:40) 0 0 0 0 0
31-10-2020 -- (--) -- (--) -- 5.83 (06:40) 3.33 (10:40) 0 0 0 0 0
30-10-2020 22.4 (16:00) 9 (00:00) 15.7 7.78 (10:20) 4.44 (10:20) 0 0 0 0 0
29-10-2020 21.2 (16:00) 9.1 (00:00) 15.2 8.89 (12:20) 4.17 (12:20) 0 0 0 0 0
28-10-2020 18.6 (16:00) 12.1 (00:00) 15.4 8.33 (15:10) 4.44 (15:10) 0.2 0 0.2 0 0
27-10-2020 16.9 (13:10) 4.6 (00:00) 10.7 11.67 (14:30) 6.67 (15:40) 0 0 0 0 0
26-10-2020 17.8 (14:00) 8.8 (00:00) 13.3 12.78 (06:30) 6.94 (06:30) 0 0 0 0 0

Gráficas

Temp. máximas Temp. mínimas Temp. medias Precipitaciones Rachas de viento máximas Velocidades máximas media en intervalos de 10 minutos

Datos horarios

Fecha y hora oficial Temperatura (ºC) Velocidad del viento (km/h) Dirección del viento Racha (km/h) Dirección de racha Precipitación (mm) Presión (hPa) Tendencia (hPa) Humedad (%)
2020-11-24 23:00:00 7.2 7 Este 10 Este 0 987.2 -0.8 92
2020-11-24 22:00:00 8.2 4 Nordeste 8 Nordeste 0 987.6 -0.6 88
2020-11-24 21:00:00 8.5 0 Calma 5 Sur 0 987.9 -0.3 88
2020-11-24 20:00:00 8.8 5 Sudeste 7 Sudeste 0 988 -0.2 86
2020-11-24 19:00:00 10.4 0 Calma 3 Oeste 0 988.2 -0.2 77
2020-11-24 18:00:00 13.5 0 Calma 5 Sur 0 988.2 -- 65
2020-11-24 17:00:00 15.6 2 Sudoeste 10 Norte 0 988.2 -- 56
2020-11-24 16:00:00 14.7 3 Norte 9 Norte 0 988.4 -- 58
2020-11-24 15:00:00 14.5 3 Oeste 10 Sudeste 0 989 -- 57
2020-11-24 14:00:00 13.6 5 Sudeste 14 Sudeste 0 990 -- 62
2020-11-24 13:00:00 12.2 6 Este 13 Este 0 991.1 -- 64
2020-11-24 12:00:00 10.5 6 Sudeste 12 Sudeste 0 992.3 -- 73
2020-11-24 11:00:00 8.2 5 Este 10 Este 0 992.7 -- 85
2020-11-24 10:00:00 4.9 4 Este 6 Este 0 992.6 -- 97
2020-11-24 09:00:00 2.5 0 Calma 8 Este 0 992.5 -- 96
2020-11-24 08:00:00 2.6 5 Nordeste 7 Nordeste 0 992 -- 96
2020-11-24 07:00:00 3.1 4 Sudeste 8 Sudeste 0 991.9 -- 97
2020-11-24 06:00:00 2.7 4 Sudeste 8 Este 0 991.8 -- 96
2020-11-24 05:00:00 2.7 5 Este 6 Este 0 991.8 -- 95
2020-11-24 04:00:00 3.6 2 Sur 6 Este 0 992.1 -- 95
2020-11-24 03:00:00 4.4 3 Sudeste 8 Nordeste 0 992.4 -- 95
2020-11-24 02:00:00 5.1 7 Nordeste 11 Nordeste 0 992.6 -- 96
2020-11-24 01:00:00 5 6 Nordeste 11 Sudeste 0 993.2 -- 95
2020-11-24 00:00:00 6.1 6 Sudeste 10 Sudeste 0 993.4 -- 94
2020-11-23 23:00:00 5.5 5 Sudeste 11 Sudeste 0 993.8 -- 93
2020-11-23 22:00:00 6 4 Norte 9 Nordeste 0 994 -- 90
2020-11-23 21:00:00 7.5 3 Este 6 Sudeste 0 993.6 -- 86
2020-11-23 20:00:00 8.7 3 Este 6 Nordeste 0 993.3 -- 82
2020-11-23 19:00:00 10.9 3 Nordeste 4 Nordeste 0 993.1 -- 74
2020-11-23 18:00:00 14.9 0 Calma 8 Este 0 993 -- 60
2020-11-23 17:00:00 16.4 5 Este 14 Sudeste 0 992.8 -- 50
2020-11-23 16:00:00 16.7 5 Sudeste 15 Este 0 993.3 -- 49
2020-11-23 15:00:00 16 7 Este 14 Este 0 993.7 -- 55
2020-11-23 14:00:00 14.7 7 Este 15 Este 0 994.4 -- 61
2020-11-23 13:00:00 13.1 6 Nordeste 16 Este 0 995.2 -- 67
2020-11-23 12:00:00 11.3 8 Este 26 Este 0 996.1 -- 75
2020-11-23 11:00:00 9.2 8 Nordeste 15 Nordeste 0 996.4 -- 82
2020-11-23 10:00:00 6.6 8 Este 13 Este 0 996.2 -- 93
2020-11-23 09:00:00 3.3 4 Este 19 Este 0 995.7 -- 97
2020-11-23 08:00:00 2.6 5 Este 8 Este 0 995.3 -- 96
2020-11-23 07:00:00 3.1 6 Este 8 Este 0 995.1 -- 97
2020-11-23 06:00:00 3.4 5 Este 10 Este 0 995 -- 97
2020-11-23 05:00:00 3.8 7 Este 10 Este 0 994.9 -- 97
2020-11-23 04:00:00 3.1 5 Nordeste 8 Este 0 995 -- 95
2020-11-23 03:00:00 4.1 5 Este 9 Este 0 995.1 -- 96
2020-11-23 02:00:00 3.9 4 Este 6 Este 0 995.2 -- 95
2020-11-23 01:00:00 4.3 5 Este 8 Este 0 995.3 -- 95
2020-11-23 00:00:00 4.9 4 Este 6 Este 0 995.3 -- 94
2020-11-22 23:00:00 5.6 3 Este 5 Este 0 995.2 -- 92
2020-11-22 22:00:00 6.5 0 Calma 6 Este 0 995.1 -- 90
2020-11-22 21:00:00 7.6 4 Este 6 Nordeste 0 995 -- 87
2020-11-22 20:00:00 9 4 Este 6 Nordeste 0 994.6 -- 82
2020-11-22 19:00:00 11.1 3 Nordeste 5 Sudeste 0 994.3 -- 73
2020-11-22 18:00:00 14.5 4 Sudeste 6 Este 0 994 -- 60
2020-11-22 17:00:00 15.9 3 Este 12 Sudeste 0 993.9 -- 54
2020-11-22 16:00:00 15.9 4 Este 14 Este 0 993.9 -- 55
2020-11-22 15:00:00 15.3 5 Este 15 Este 0 994.5 -- 55
2020-11-22 14:00:00 15 7 Este 15 Este 0 995.2 -- 56
2020-11-22 13:00:00 13.5 8 Este 21 Este 0 996.2 -- 61
2020-11-22 12:00:00 11.9 12 Este 23 Este 0 996.9 -- 69
2020-11-22 11:00:00 10.5 12 Este 19 Este 0 997.3 -- 71
2020-11-22 10:00:00 8.4 8 Este 14 Este 0 997 -- 76
2020-11-22 09:00:00 5.9 4 Nordeste 14 Nordeste 0 996.8 -- 83
2020-11-22 08:00:00 4.5 9 Nordeste 12 Nordeste 0 996.4 -- 87
2020-11-22 07:00:00 4.7 7 Nordeste 18 Este 0 996.1 -- 86
2020-11-22 06:00:00 4.7 8 Nordeste 12 Nordeste 0 995.8 -- 86
2020-11-22 05:00:00 5.2 8 Nordeste 19 Este 0 995.7 -- 84
2020-11-22 04:00:00 5.9 8 Nordeste 11 Este 0 995.5 -- 79
2020-11-22 03:00:00 6.7 7 Este 14 Este 0 995.5 -- 75
2020-11-22 02:00:00 7.3 8 Este 14 Nordeste 0 995.4 -- 73
2020-11-22 01:00:00 7.6 8 Este 13 Nordeste 0 995.4 -- 74
2020-11-22 00:00:00 7.5 9 Nordeste 14 Nordeste 0 995.2 -- 77
2020-11-21 23:00:00 8 8 Este 12 Este 0 995 -- 74
2020-11-21 22:00:00 9.7 7 Este 14 Este 0 994.9 -- 66
2020-11-21 21:00:00 8.4 8 Este 10 Sudeste 0 994.9 -- 75
2020-11-21 20:00:00 10.2 4 Sudeste 12 Este 0 994.5 -- 66
2020-11-21 19:00:00 12.2 4 Nordeste 11 Sudeste 0 994.4 -- 57
2020-11-21 18:00:00 15 8 Sudeste 13 Este 0 993.8 -- 48
2020-11-21 17:00:00 17.2 8 Este 19 Este 0 993.3 -- 40
2020-11-21 16:00:00 18 8 Sudeste 22 Sudeste 0 993.1 -- 36
2020-11-21 15:00:00 17.6 12 Este 23 Este 0 993.2 -- 31
2020-11-21 14:00:00 16.9 11 Este 25 Este 0 994 -- 35
2020-11-21 13:00:00 15.9 12 Este 26 Este 0 994.8 -- 39
2020-11-21 12:00:00 14 14 Este 24 Este 0 995.7 -- 47
2020-11-21 11:00:00 11.6 10 Este 22 Este 0 995.8 -- 62
2020-11-21 10:00:00 9.1 7 Este 13 Este 0 995.6 -- 74
2020-11-21 09:00:00 5.6 6 Sudeste 12 Este 0 995.1 -- 84
2020-11-21 08:00:00 4.8 5 Este 12 Nordeste 0 994.7 -- 89
2020-11-21 07:00:00 6.1 8 Este 15 Este 0 994.2 -- 85
2020-11-21 06:00:00 7.6 10 Este 16 Este 0 994.1 -- 75
2020-11-21 05:00:00 9 10 Este 22 Este 0 994.3 -- 68
2020-11-21 04:00:00 7.5 10 Nordeste 15 Nordeste 0 994.5 -- 81
2020-11-21 03:00:00 5.7 6 Este 11 Este 0 994.3 -- 94
2020-11-21 02:00:00 6 4 Sudeste 9 Nordeste 0 994.5 -- 92
2020-11-21 01:00:00 7.3 6 Este 14 Este 0 994.7 -- 90
2020-11-21 00:00:00 7.8 10 Nordeste 13 Este 0 994.6 -- 89
2020-11-20 23:00:00 8.9 4 Sudeste 12 Este 0 994.7 -- 82
2020-11-20 22:00:00 9.4 8 Este 11 Sudeste 0 994.6 -- 85
2020-11-20 21:00:00 9.6 3 Sudeste 12 Nordeste 0 994.5 -- 84
2020-11-20 20:00:00 11.9 8 Nordeste 11 Este 0 994.7 -- 74
2020-11-20 19:00:00 13.4 5 Nordeste 12 Nordeste 0 994.5 -- 66
2020-11-20 18:00:00 16.2 6 Nordeste 14 Nordeste 0 994.6 -- 57
2020-11-20 17:00:00 18.2 9 Nordeste 20 Nordeste 0 994.7 -- 48
2020-11-20 16:00:00 18.5 13 Este 24 Este 0 994.6 -- 44
2020-11-20 15:00:00 18.8 12 Este 30 Este 0 995.2 -- 37
2020-11-20 14:00:00 18.5 13 Este 27 Este 0 995.8 -- 38
2020-11-20 13:00:00 17.5 12 Este 23 Sudeste 0 996.7 -- 53
2020-11-20 12:00:00 15.5 9 Este 18 Nordeste 0 997.6 -- 70
2020-11-20 11:00:00 13.3 11 Este 20 Este 0 997.7 -- 76
2020-11-20 10:00:00 12.2 9 Este 20 Este 0 997.9 -- 80
2020-11-20 09:00:00 10 6 Nordeste 17 Este 0.2 997.6 -- 92
2020-11-20 08:00:00 8.3 9 Nordeste 14 Nordeste 0 997.4 -- 96
2020-11-20 07:00:00 9.1 6 Este 24 Este 0 997.3 -- 96
2020-11-20 06:00:00 8.9 9 Nordeste 14 Nordeste 0 997.3 -- 97
2020-11-20 05:00:00 7.9 3 Este 8 Sudeste 0 997.7 -- 98
2020-11-20 04:00:00 7.4 4 Este 7 Oeste 0 998.1 -- 97
2020-11-20 03:00:00 8.8 3 Este 18 Este 0 998.3 -- 97
2020-11-20 02:00:00 8.7 2 Nordeste 11 Nordeste 0 998.5 -- 97
2020-11-20 01:00:00 9 4 Este 9 Sudeste 0 998.9 -- 97
2020-11-20 00:00:00 9.2 4 Este 7 Nordeste 0 999 -- 97
2020-11-19 23:00:00 10 3 Este 8 Este 0 999.1 -- 96
2020-11-19 22:00:00 10.2 5 Nordeste 7 Este 0 998.8 -- 95
2020-11-19 21:00:00 11.2 5 Nordeste 9 Norte 0 998.5 -- 94
2020-11-19 20:00:00 12.6 3 Sur 6 Sudoeste 0 998.4 -- 91
2020-11-19 19:00:00 14.6 3 Oeste 7 Noroeste 0 998.1 -- 87
2020-11-19 18:00:00 17.6 3 Oeste 5 Oeste 0 998 -- 75
2020-11-19 17:00:00 19.4 0 Calma 6 Sudoeste 0 997.9 -- 68
2020-11-19 16:00:00 18.4 2 Sudeste 11 Nordeste 0 997.9 -- 70
2020-11-19 15:00:00 16.9 5 Este 13 Nordeste 0 998.4 -- 75
2020-11-19 14:00:00 15.1 4 Este 12 Este 0 999 -- 83
2020-11-19 13:00:00 13 7 Sudeste 12 Sudeste 0 999.8 -- 91
2020-11-19 12:00:00 12.2 6 Sudeste 13 Este 0 1000.1 -- 96
2020-11-19 11:00:00 11.5 7 Este 16 Nordeste 0 1000.1 -- 98
2020-11-19 10:00:00 11.3 6 Este 14 Este 0 999.3 -- 98
2020-11-19 09:00:00 11.1 6 Este 14 Sudeste 0 998.8 -- 98
2020-11-19 08:00:00 11.4 6 Este 13 Este 0 998 -- 98
2020-11-19 07:00:00 11.4 7 Sudeste 16 Sudeste 0 997.5 -- 98
2020-11-19 06:00:00 11.5 6 Nordeste 14 Este 0 997.1 -- 98
2020-11-19 05:00:00 11.5 7 Este 15 Este 0 997 -- 98
2020-11-19 04:00:00 11.7 7 Este 18 Este 0 996.6 -- 98
2020-11-19 03:00:00 11.8 9 Este 17 Este 0 996.5 -- 98
2020-11-19 02:00:00 11.9 9 Este 18 Este 0 996.7 -- 97
2020-11-19 01:00:00 12.2 9 Este 15 Este 0 997 -- 97
2020-11-19 00:00:00 12.6 8 Nordeste 14 Nordeste 0 997 -- 95
2020-11-18 23:00:00 12.9 5 Este 12 Este 0 996.9 -- 94
2020-11-18 22:00:00 12.9 6 Este 13 Este 0 996.6 -- 94
2020-11-18 21:00:00 13 7 Este 14 Sudeste 0 996.3 -- 93
2020-11-18 20:00:00 13.2 4 Sudeste 9 Sudeste 0 996 -- 93
2020-11-18 19:00:00 13.2 5 Sudeste 12 Este 0 995.6 -- 92
2020-11-18 18:00:00 13.3 4 Sur 10 Sur 0 995.4 -- 92
2020-11-18 17:00:00 13.4 4 Este 19 Sudeste 0 995.1 -- 90
2020-11-18 16:00:00 13.3 7 Este 17 Este 0 995.1 -1.4 91
2020-11-18 15:00:00 12.8 8 Este 16 Este 0 995.3 -- 92
2020-11-18 14:00:00 12.3 9 Este 22 Sudeste 0 995.8 -- 94
2020-11-18 13:00:00 11.7 9 Este 22 Este 0 996.5 -- 96
2020-11-18 12:00:00 11.3 10 Este 24 Sudeste 0 996.9 -- 97
2020-11-18 11:00:00 11 7 Sudeste 19 Este 0 997 -- 98
2020-11-18 10:00:00 10.5 10 Este 23 Este 0 996.9 -- 98
2020-11-18 09:00:00 10.7 11 Este 18 Sudeste 0 996.4 -- 98
2020-11-18 08:00:00 10.6 7 Este 19 Este 0 995.9 -- 98
2020-11-18 07:00:00 10.6 10 Este 18 Este 0 995.4 -- 98
2020-11-18 06:00:00 11.1 9 Este 19 Este 0 995.2 -- 98
2020-11-18 05:00:00 11.3 9 Este 18 Este 0 995.2 -- 98
2020-11-18 04:00:00 11.7 8 Este 15 Este 0 995.1 -- 98
2020-11-18 03:00:00 11.4 4 Sudeste 12 Este 0.2 995 -- 98
2020-11-18 02:00:00 11.4 7 Este 13 Este 0 995.2 -- 98
2020-11-18 01:00:00 10.6 6 Este 15 Este 0 995.4 -- 98
2020-11-18 00:00:00 10.7 6 Este 11 Este 0 995.3 -- 98
2020-11-17 23:00:00 11.4 4 Este 7 Este 0 995.2 -- 98
2020-11-17 22:00:00 10.6 5 Este 9 Este 0 995.1 -- 97
2020-11-17 21:00:00 11.9 2 Sur 6 Sudoeste 0 994.9 -- 95
2020-11-17 20:00:00 12.8 4 Oeste 6 Noroeste 0 994.6 -- 92
2020-11-17 19:00:00 14.5 3 Noroeste 7 Noroeste 0 994.3 -- 89
2020-11-17 18:00:00 17.3 3 Sudoeste 4 Sudoeste 0 993.9 -- 83
2020-11-17 17:00:00 17.9 0 Calma 10 Sur 0 993.9 -- 80
2020-11-17 16:00:00 18 3 Sudoeste 8 Norte 0 993.9 -- 81
2020-11-17 15:00:00 15.6 7 Sudeste 12 Sudeste 0 994.2 -- 90
2020-11-17 14:00:00 14.1 3 Sudeste 12 Sudeste 0 994.5 -- 96
2020-11-17 13:00:00 13 5 Sur 10 Sudeste 0 995.2 -- 98
2020-11-17 12:00:00 12.2 5 Sudeste 12 Sudeste 0 995.8 -- 98
2020-11-17 11:00:00 10.9 6 Este 13 Este 0 996 -- 98
2020-11-17 10:00:00 10.6 5 Este 10 Este 0 995.8 -- 98
2020-11-17 09:00:00 10.1 5 Este 9 Este 0 995.1 -- 98
2020-11-17 08:00:00 10.1 3 Nordeste 8 Este 0 994.6 -- 98
2020-11-17 07:00:00 10 5 Este 10 Este 0 994.3 -- 98
2020-11-17 06:00:00 10.2 3 Este 6 Nordeste 0 994 -- 98
2020-11-17 05:00:00 9.5 2 Este 7 Nordeste 0 993.9 -- 98
2020-11-17 04:00:00 9.4 0 Calma 6 Sudeste 0.2 993.9 -- 97
2020-11-17 03:00:00 8.9 0 Calma 5 Sudeste 0 993.9 -- 97
2020-11-17 02:00:00 9.6 5 Este 7 Nordeste 0 993.9 -- 97
2020-11-17 01:00:00 9.7 2 Este 5 Sudeste 0 994 -- 96
2020-11-17 00:00:00 10.7 3 Este 8 Norte 0 994.1 -- 96
2020-11-16 23:00:00 11.1 0 Calma 8 Nordeste 0 993.9 -- 94
2020-11-16 22:00:00 12 4 Este 10 Este 0 993.6 -- 94
2020-11-16 21:00:00 12.6 4 Nordeste 5 Sur 0 993.1 -- 94
2020-11-16 20:00:00 13.7 3 Sudeste 6 Sudoeste 0 992.5 -- 91
2020-11-16 19:00:00 15.7 3 Sur 5 Sur 0 992 -- 84
2020-11-16 18:00:00 18.2 3 Sudoeste 10 Oeste 0 991.6 -- 74
2020-11-16 17:00:00 19.6 8 Oeste 12 Oeste 0 991.6 -- 67
2020-11-16 16:00:00 20.4 4 Oeste 12 Sudoeste 0 991.6 -- 65
2020-11-16 15:00:00 19.6 3 Norte 14 Nordeste 0 991.9 -- 70
2020-11-16 14:00:00 18.5 5 Nordeste 15 Norte 0 992.1 -- 75
2020-11-16 13:00:00 17.4 4 Noroeste 12 Noroeste 0 992.3 -- 83
2020-11-16 12:00:00 16.5 5 Oeste 13 Oeste 0 992.5 -- 88
2020-11-16 11:00:00 15.6 2 Noroeste 10 Oeste 0 992 -- 93
2020-11-16 10:00:00 15 5 Oeste 12 Sudoeste 0 991.7 -- 96
2020-11-16 09:00:00 14.9 5 Sudoeste 13 Oeste 0 991 -- 97
2020-11-16 08:00:00 14.9 0 Calma 21 Oeste 0 990.3 -- 98
2020-11-16 07:00:00 14.6 8 Oeste 20 Sudoeste 0 989.8 -- 98
2020-11-16 06:00:00 13.2 3 Sur 10 Nordeste 0 989.7 -- 98
2020-11-16 05:00:00 13.6 7 Nordeste 9 Nordeste 0 989.4 -- 98
2020-11-16 04:00:00 14.8 4 Nordeste 8 Este 0 989.5 -- 98
2020-11-16 03:00:00 14.7 4 Norte 18 Sudoeste 0 989.8 -- 98
2020-11-16 02:00:00 14.7 9 Sudoeste 14 Sudoeste 0 989.9 -- 98
2020-11-16 01:00:00 14.8 8 Sudoeste 15 Sudoeste 0 990.1 -- 97
2020-11-16 00:00:00 15.1 5 Sudoeste 8 Oeste 0 990.3 -- 97
2020-11-15 23:00:00 15.1 2 Sudeste 4 Sudeste 0 989.9 -- 97
2020-11-15 22:00:00 15.3 0 Calma 4 Sur 0 989.4 -- 96
2020-11-15 21:00:00 15.6 3 Este 6 Nordeste 0 989.3 -- 96
2020-11-15 20:00:00 15.9 0 Calma 6 Nordeste 0 989.5 -- 94
2020-11-15 19:00:00 16.1 4 Nordeste 8 Nordeste 0 989.2 -- 94
2020-11-15 18:00:00 16.9 5 Sudeste 9 Sudeste 0 988.9 -- 91
2020-11-15 17:00:00 17.3 5 Sudeste 10 Sudeste 0 989 -- 89
2020-11-15 16:00:00 17.8 4 Sudeste 11 Sudeste 0 988.8 -- 87
2020-11-15 15:00:00 16.7 3 Sudeste 17 Este 0 989.1 -- 91
2020-11-15 14:00:00 16.3 5 Este 9 Este 0 989.3 -- 92
2020-11-15 13:00:00 15.9 4 Nordeste 8 Nordeste 0 989.9 -- 94
2020-11-15 12:00:00 15.5 5 Este 8 Este 0 990.3 -- 95
2020-11-15 11:00:00 15.1 4 Sudeste 10 Sudeste 0 990.2 -- 97
2020-11-15 10:00:00 14.3 3 Este 5 Este 0 990.3 -- 97
2020-11-15 09:00:00 13.9 3 Nordeste 6 Este 0 989.9 -- 98
2020-11-15 08:00:00 13.8 3 Nordeste 8 Nordeste 0 989.3 -- 98
2020-11-15 07:00:00 13.8 3 Nordeste 7 Sur 0.4 988.9 -- 98
2020-11-15 06:00:00 13.8 4 Este 8 Este 1.4 988.8 -- 98
2020-11-15 05:00:00 13.7 4 Nordeste 8 Nordeste 0.8 988.9 -- 98
2020-11-15 04:00:00 13.7 3 Nordeste 9 Nordeste 0.2 989.1 -- 98
2020-11-15 03:00:00 13.7 3 Este 9 Este 0 989.3 -- 98
2020-11-15 02:00:00 13.6 5 Este 9 Este 0 989.5 -- 98
2020-11-15 01:00:00 13.5 4 Nordeste 12 Nordeste 0 989.9 -- 98
2020-11-15 00:00:00 13.6 4 Nordeste 12 Nordeste 0 990.1 -- 98
2020-11-14 23:00:00 13.7 5 Nordeste 8 Nordeste 0 990.1 -- 98
2020-11-14 22:00:00 13.5 5 Sur 11 Sudeste 0 989.8 -- 97
2020-11-14 21:00:00 13.5 4 Nordeste 7 Nordeste 0 989.5 -- 97
2020-11-14 20:00:00 13.8 2 Norte 7 Noroeste 0.4 989.5 -- 96
2020-11-14 19:00:00 14.1 2 Noroeste 5 Noroeste 0.2 988.9 -- 96
2020-11-14 18:00:00 14.3 3 Este 11 Este 0 988.3 -- 96
2020-11-14 17:00:00 14.4 6 Nordeste 11 Nordeste 0 988.2 -- 95
2020-11-14 16:00:00 14.5 7 Este 15 Nordeste 0 988 -- 92
2020-11-14 15:00:00 14.4 9 Nordeste 15 Nordeste 0 987.9 -- 93
2020-11-14 14:00:00 14.3 4 Este 14 Este 0 988.3 -- 92
2020-11-14 13:00:00 14 6 Este 13 Este 0 988.8 -- 91
2020-11-14 12:00:00 13.5 9 Nordeste 15 Este 0 989.3 -- 92
2020-11-14 11:00:00 12.9 6 Este 15 Sudeste 0 989.2 -- 94
2020-11-14 10:00:00 12.5 8 Este 16 Este 0.2 989 -- 94
2020-11-14 09:00:00 12.2 5 Este 9 Este 0.2 988.7 -- 95
2020-11-14 08:00:00 12.1 5 Nordeste 9 Nordeste 0.2 988 -- 95
2020-11-14 07:00:00 12.1 5 Este 21 Nordeste 1.6 987.8 -- 94
2020-11-14 06:00:00 12.3 5 Nordeste 11 Nordeste 0.6 987.6 -- 94
2020-11-14 05:00:00 12.5 4 Nordeste 9 Este 0.2 987.4 -- 91
2020-11-14 04:00:00 12.5 5 Este 8 Este 0 987.6 -- 88
2020-11-14 03:00:00 12.5 3 Sudeste 11 Este 0 988 -- 86
2020-11-14 02:00:00 12.7 7 Este 14 Este 0 988.2 -- 85
2020-11-14 01:00:00 12.7 7 Nordeste 11 Nordeste 0 988.7 -- 88
2020-11-14 00:00:00 13.2 7 Este 11 Este 0 989.1 -- 86
2020-11-13 23:00:00 13.2 6 Este 10 Este 0 989.1 -- 85
2020-11-13 22:00:00 13.2 5 Nordeste 8 Este 0 988.8 -- 86
2020-11-13 21:00:00 13.6 4 Este 8 Este 0 988.7 -- 84
2020-11-13 20:00:00 14.2 5 Este 10 Este 0 988.4 -- 79
2020-11-13 19:00:00 14.3 4 Este 7 Nordeste 0 988.1 -- 80
2020-11-13 18:00:00 15.4 3 Este 8 Sudeste 0 987.8 -- 74
2020-11-13 17:00:00 16.4 3 Este 12 Sudeste 0 987.7 -- 68
2020-11-13 16:00:00 16.5 6 Este 19 Sudeste 0 987.6 -- 67
2020-11-13 15:00:00 16.2 7 Este 20 Este 0 987.9 -- 69
2020-11-13 14:00:00 14.9 8 Este 24 Este 0 988.6 -- 72
2020-11-13 13:00:00 14.5 12 Este 24 Este 0 989.2 -- 73
2020-11-13 12:00:00 14 12 Este 22 Este 0 989.9 -- 74
2020-11-13 11:00:00 12.7 8 Este 20 Este 0 989.8 -- 81
2020-11-13 10:00:00 11 8 Este 14 Este 0 989.8 -- 88
2020-11-13 09:00:00 9 8 Nordeste 14 Nordeste 0 989.1 -- 94
2020-11-13 08:00:00 8.6 4 Este 12 Este 0 988.5 -- 93
2020-11-13 07:00:00 8.8 8 Este 14 Este 0 988.3 -- 94
2020-11-13 06:00:00 8.7 8 Este 13 Este 0 988.1 -- 95
2020-11-13 05:00:00 8 2 Este 7 Sudeste 0 987.8 -- 93
2020-11-13 04:00:00 8.6 3 Este 10 Este 0 987.9 -- 92
2020-11-13 03:00:00 9.4 7 Este 10 Este 0 988 -- 93
2020-11-13 02:00:00 10.1 4 Este 8 Este 0 988.2 -- 93
2020-11-13 01:00:00 10.4 6 Este 8 Este 0 988.5 -- 92
2020-11-13 00:00:00 10.7 4 Este 8 Este 0 988.5 -- 91
2020-11-12 23:00:00 11.1 6 Este 9 Este 0 988.6 -- 89
2020-11-12 22:00:00 11.5 5 Sudeste 13 Sudeste 0 988.3 -- 87
2020-11-12 21:00:00 12.2 8 Sudeste 12 Este 0 988.1 -- 87
2020-11-12 20:00:00 12.5 9 Este 10 Este 0 988.5 -- 90
2020-11-12 19:00:00 13.6 5 Este 9 Este 0 988.3 -- 84
2020-11-12 18:00:00 15.6 4 Este 10 Nordeste 0 987.7 -- 77
2020-11-12 17:00:00 17 5 Nordeste 18 Nordeste 0 987.7 -- 70
2020-11-12 16:00:00 17.1 8 Nordeste 15 Nordeste 0 987.7 -- 70
2020-11-12 15:00:00 16.3 7 Este 17 Este 0 988.3 -- 71
2020-11-12 14:00:00 15.4 7 Este 20 Nordeste 0 989 -- 76
2020-11-12 13:00:00 14.4 13 Este 23 Nordeste 0 990.2 -- 75
2020-11-12 12:00:00 13.4 9 Este -- -- -- 991.3 -- 80
2020-11-12 11:00:00 12.1 6 Sudeste 15 Sudeste 0 991.3 -- --
2020-11-12 10:00:00 10.9 4 Este 14 Este 0 991.2 -- --
2020-11-12 09:00:00 10.2 8 Este 13 Este 0 991.2 -- --
2020-11-12 08:00:00 9.3 5 Este 13 Nordeste 0 991 -- --
2020-11-12 07:00:00 9.3 6 Nordeste 11 Este 0 990.7 -- --
2020-11-12 06:00:00 9.5 6 Este 9 Este 0 990.6 -- --
2020-11-12 05:00:00 9.3 5 Este 8 Nordeste 0 990.4 -- --
2020-11-12 04:00:00 9.6 4 Nordeste 13 Este 0 990.9 -- --
2020-11-12 03:00:00 9.7 6 Este 10 Este 0 991.1 -- --
2020-11-12 02:00:00 9.9 6 Este 8 Este 0 991.6 -- --
2020-11-12 01:00:00 10.3 5 Este 9 Este 0 991.9 -- --
2020-11-12 00:00:00 10.6 6 Sudeste 10 Sudeste 0 992 -- --
2020-11-11 23:00:00 11.1 5 Sudeste 10 Sudeste 0 991.7 -- --
2020-11-11 22:00:00 11.7 3 Nordeste 10 Este 0 991.6 -- --
2020-11-11 21:00:00 12.2 7 Nordeste 12 Nordeste 0 991.3 -- --
2020-11-11 20:00:00 12.7 6 Este 9 Este 0 991 -- --
2020-11-11 19:00:00 13.8 6 Nordeste 9 Este 0 991 -- --
2020-11-11 18:00:00 15.9 5 Este 10 Este 0 990.6 -- --
2020-11-11 17:00:00 17.4 6 Este 15 Este 0 990.7 -- --
2020-11-11 16:00:00 17.6 7 Este 15 Este 0 990.7 -- --
2020-11-11 15:00:00 17.5 8 Este 18 Este 0 990.9 -- --
2020-11-11 14:00:00 17.3 10 Sudeste 21 Este 0 991.5 -- --
2020-11-11 13:00:00 15.8 11 Este 20 Este 0 992.2 -- --
2020-11-11 12:00:00 14.9 11 Este 23 Nordeste 0 993.1 -- --
2020-11-11 11:00:00 13.3 8 Este 19 Este 0 993.5 -- --
2020-11-11 10:00:00 10.5 10 Este 17 Este 0 993.7 -- 63
2020-11-11 09:00:00 8.3 6 Este 12 Nordeste 0 993.6 -- --
2020-11-11 08:00:00 7.2 4 Nordeste 15 Este 0.2 993.3 -- --
2020-11-11 07:00:00 7.8 6 Este 17 Este 0 993.3 -- --
2020-11-11 06:00:00 7.8 7 Este 17 Este 0 993.4 -- --
2020-11-11 05:00:00 8.7 11 Este 17 Este 0 993.3 -- --
2020-11-11 04:00:00 8 8 Nordeste 13 Nordeste 0 993.4 -- --
2020-11-11 03:00:00 8.2 7 Nordeste 10 Este 0 994 -- --
2020-11-11 02:00:00 9.3 6 Este 14 Este 0 994.4 -- --
2020-11-11 01:00:00 9.3 5 Este 7 Este 0 994.5 -- --
2020-11-11 00:00:00 10.1 3 Este 11 Este 0 994.7 -- --
2020-11-10 23:00:00 10.6 7 Este 10 Este 0 994.5 -- --
2020-11-10 22:00:00 11.1 6 Este 11 Este 0 994.2 -- --
2020-11-10 21:00:00 11.9 7 Este 11 Nordeste 0 994.1 -- --
2020-11-10 20:00:00 12.8 6 Este 8 Este 0 993.8 -- --
2020-11-10 19:00:00 14.5 5 Este 10 Este 0 993.8 -- --
2020-11-10 18:00:00 16.7 6 Sudeste 12 Este 0 993.5 -- --
2020-11-10 17:00:00 18.3 5 Este 16 Este 0 993.9 -- --
2020-11-10 16:00:00 18.7 8 Este 19 Este 0 993.6 -- --
2020-11-10 15:00:00 18.4 9 Sudeste 18 Este 0 993.7 -- --
2020-11-10 14:00:00 17.7 6 Sudeste 16 Este 0 994.4 -- --
2020-11-10 13:00:00 16.4 6 Este 15 Nordeste 0 995.1 -- --
2020-11-10 12:00:00 14.6 3 Sudeste 11 Sur 0 995.8 -- --
2020-11-10 11:00:00 11.2 3 Sudeste 10 Este 0 995.9 -- --
2020-11-10 10:00:00 9.2 4 Este 8 Sudeste 0 995.6 -- --
2020-11-10 09:00:00 8.4 3 Este 6 Sudeste 0 995.3 -- --
2020-11-10 08:00:00 7.6 0 Calma 4 Nordeste 0 994.4 -- --
2020-11-10 07:00:00 8.8 0 Calma 5 Sur 0 993.8 -- --
2020-11-10 06:00:00 7.2 4 Sur 5 Sur 0 993.6 -- --
2020-11-10 05:00:00 7.4 0 Calma 5 Este 0 993.5 -- --
2020-11-10 04:00:00 8.3 4 Este 9 Este 0 993.2 -- --
2020-11-10 03:00:00 8.6 4 Este 8 Este 0 993.1 -- --
2020-11-10 02:00:00 9 6 Este 8 Este 0 993.1 -- --
2020-11-10 01:00:00 9.1 5 Nordeste 8 Nordeste 0 993.1 -- --
2020-11-10 00:00:00 9.8 5 Este 7 Nordeste 0 993 -- --
2020-11-09 23:00:00 10.8 3 Norte 8 Sudoeste 0 992.9 -- --
2020-11-09 22:00:00 11.6 6 Sudoeste 13 Sur 0 992.6 -- --
2020-11-09 21:00:00 12.3 6 Oeste 10 Oeste 0 992.4 -- --
2020-11-09 20:00:00 13.4 8 Sudoeste 14 Sudoeste 0 992.1 -- --
2020-11-09 19:00:00 14.4 9 Sudoeste 17 Oeste 0 991.6 -- --
2020-11-09 18:00:00 16.5 8 Oeste 22 Oeste 0 991.2 -- --
2020-11-09 17:00:00 18.5 9 Oeste 23 Oeste 0 990.8 -- --
2020-11-09 16:00:00 19 10 Oeste 23 Oeste 0 990.5 -- --
2020-11-09 15:00:00 18.5 5 Oeste 19 Oeste 0 990.5 -- --
2020-11-09 14:00:00 18.5 7 Oeste 18 Sudoeste 0 990.7 -- --
2020-11-09 13:00:00 17.9 10 Sudoeste 21 Sudoeste 0 991.2 -- --
2020-11-09 12:00:00 16.1 7 Oeste 15 Sudoeste 0 991.7 -- --
2020-11-09 11:00:00 14.9 4 Oeste 10 Oeste 0 991.7 -- --
2020-11-09 10:00:00 13.8 0 Calma 5 Noroeste 0 991.4 -- --
2020-11-09 09:00:00 13.4 0 Calma 5 Oeste 0 990.9 -- --
2020-11-09 08:00:00 13.1 2 Noroeste 5 Nordeste 0 989.9 -- --
2020-11-09 07:00:00 13 4 Nordeste 14 Este 0.2 989.3 -- --
2020-11-09 06:00:00 13.1 4 Nordeste 9 Este 0.6 989.1 -- --
2020-11-09 05:00:00 13.1 5 Este 9 Este 0.2 988.7 -- --
2020-11-09 04:00:00 13.1 5 Nordeste 12 Este 0 988.8 -- --
2020-11-09 03:00:00 13.1 6 Este 12 Este 0.6 988.8 -- --
2020-11-09 02:00:00 13.1 5 Este 8 Nordeste 5.2 989 -- --
2020-11-09 01:00:00 13.1 5 Este 10 Este 0.6 989.3 -- --
2020-11-09 00:00:00 13.2 5 Este 20 Sudeste 3 989.2 -- --
2020-11-08 23:00:00 13.3 7 Sudeste 13 Sudeste 3.4 989.5 -- --
2020-11-08 22:00:00 13.5 7 Este 18 Este 0.2 989.2 -- --
2020-11-08 21:00:00 13.4 10 Este 24 Este 4 988.7 -- --
2020-11-08 20:00:00 13.3 10 Este 31 Este 6.4 989.1 -- --
2020-11-08 19:00:00 13.7 6 Nordeste 17 Nordeste 3.6 989 -- --
2020-11-08 18:00:00 15.2 8 Nordeste 18 Nordeste 0 988.4 -- --
2020-11-08 17:00:00 15.7 9 Nordeste 25 Este 0 988.3 -- --
2020-11-08 16:00:00 15.4 13 Nordeste 25 Nordeste 0 988.4 -- --
2020-11-08 15:00:00 15.5 12 Nordeste 21 Nordeste 0 989 -- --
2020-11-08 14:00:00 14.7 6 Nordeste 20 Nordeste 0 989.6 -- --
2020-11-08 13:00:00 14.9 12 Nordeste 29 Nordeste 0 990.2 -- --
2020-11-08 12:00:00 14.1 14 Nordeste 23 Nordeste 0 990.9 -- --
2020-11-08 11:00:00 13.6 9 Nordeste 19 Este 0 991.2 -- --
2020-11-08 10:00:00 12.8 5 Este 17 Este 0 991.1 -- --
2020-11-08 09:00:00 12.1 9 Este 20 Este 0 990.5 -- --
2020-11-08 08:00:00 11.6 10 Este 19 Este 0 990.2 -- --
2020-11-08 07:00:00 11.1 8 Nordeste 12 Nordeste 0 990.1 -- --
2020-11-08 06:00:00 11.3 6 Este 13 Este 0 990.3 -- --
2020-11-08 05:00:00 11.7 6 Sudeste 12 Este 0 990.3 -- --
2020-11-08 04:00:00 11.9 5 Sudeste 9 Sudeste 0 990.6 -- --
2020-11-08 03:00:00 12.1 7 Este 15 Este 0 990.7 -- --
2020-11-08 02:00:00 12.7 8 Nordeste 11 Este 0 990.8 -- --
2020-11-08 01:00:00 12.9 4 Este 9 Nordeste 0 990.9 -- --
2020-11-08 00:00:00 12.8 6 Este 10 Este 0 990.8 -- --
2020-11-07 23:00:00 13.1 5 Este 9 Este 0 990.6 -- --
2020-11-07 22:00:00 13.3 7 Este 11 Este 0 990.5 -- --
2020-11-07 21:00:00 12.8 4 Sudeste 9 Este 0 990.3 -- --
2020-11-07 20:00:00 14 6 Este 9 Este 0 990.1 -- --
2020-11-07 19:00:00 14.7 3 Sudeste 5 Sudeste 0 989.6 -- --
2020-11-07 18:00:00 16.6 2 Oeste 18 Oeste 0 988.9 -- --
2020-11-07 17:00:00 18.1 13 Oeste 32 Sudoeste 0 988.5 -- --
2020-11-07 16:00:00 17.4 15 Oeste 32 Sudoeste 0 988.3 -- --
2020-11-07 15:00:00 18.2 7 Oeste 35 Oeste 0 987.8 -- --
2020-11-07 14:00:00 17.5 17 Sudoeste 38 Sudoeste 0 987.6 -- --
2020-11-07 13:00:00 17.7 17 Sudoeste 31 Oeste 0 987.3 -- --
2020-11-07 12:00:00 16.1 17 Oeste 36 Oeste 0 987 -- --
2020-11-07 11:00:00 15.7 15 Oeste 27 Oeste 0 986.1 -- --
2020-11-07 10:00:00 14.4 11 Sudoeste 21 Oeste 0 985.2 -- --
2020-11-07 09:00:00 13.1 3 Oeste 6 Este 0 984.2 -- --
2020-11-07 08:00:00 12.7 2 Noroeste 8 Norte 0 982.7 -- --
2020-11-07 07:00:00 12.6 3 Norte 6 Norte 0 981.7 -- --
2020-11-07 06:00:00 13.2 3 Sur 13 Este 0 980.9 -- --
2020-11-07 05:00:00 13.4 7 Este 14 Nordeste 0 981.2 -- --
2020-11-07 04:00:00 13.5 9 Nordeste 22 Este 0.2 981 -- --
2020-11-07 03:00:00 13.8 4 Norte 14 Noroeste 4.6 980.5 -- --
2020-11-07 02:00:00 14.3 5 Oeste 19 Este 0.4 980.7 -- --
2020-11-07 01:00:00 14 9 Este 20 Sudoeste 0.4 980.5 -- --
2020-11-07 00:00:00 14.5 14 Sur 24 Sur 1.4 981.7 -- --
2020-11-06 23:00:00 13.7 5 Sudeste 12 Nordeste 0 980.9 -- --
2020-11-06 22:00:00 14.2 7 Nordeste 18 Nordeste 0 981 -- --
2020-11-06 21:00:00 15.1 3 Sudoeste 17 Oeste 0 981.7 -- --
2020-11-06 20:00:00 17 12 Oeste 38 Sudoeste 0 981.1 -- --
2020-11-06 19:00:00 16.6 10 Nordeste 20 Este 0 979.3 -- --
2020-11-06 18:00:00 16.9 7 Sudeste 22 Oeste 2.4 980 -- --
2020-11-06 17:00:00 19.1 10 Este 29 Este 0 978.8 -- --
2020-11-06 16:00:00 19.6 15 Este 35 Este 0 978.7 -- --
2020-11-06 15:00:00 19.5 15 Este 37 Este 0 979.4 -- --
2020-11-06 14:00:00 18.8 20 Este 37 Este 0 980.3 -- --
2020-11-06 13:00:00 18 14 Este 34 Este 0 981.2 -- --
2020-11-06 12:00:00 17.8 18 Este 51 Este 0 981.5 -- --
2020-11-06 11:00:00 17.3 24 Este 50 Este 0 981.3 -2.1 --
2020-11-06 10:00:00 15.9 17 Este 51 Este 0 982.5 -- --
2020-11-06 09:00:00 15 19 Este 34 Este 0 982.3 -- --
2020-11-06 08:00:00 13.9 10 Sudeste 27 Sudeste 0 983.4 -- --
2020-11-06 07:00:00 13.7 9 Este 26 Este 0.4 983.1 -- --
2020-11-06 06:00:00 13.8 5 Este 21 Este 0.2 984.1 -- --
2020-11-06 05:00:00 14.2 13 Este 22 Este 0 983.9 -- --
2020-11-06 04:00:00 14.4 11 Este 32 Nordeste 0 984 -- --
2020-11-06 03:00:00 14.1 14 Este 28 Este 0 984.1 -- --
2020-11-06 02:00:00 13.2 11 Este 21 Este 0 984 -- --
2020-11-06 01:00:00 11.9 7 Este 23 Este 0 983.6 -- --
2020-11-06 00:00:00 11.8 11 Este 19 Sudeste 0 983.8 -- --
2020-11-05 23:00:00 11.9 11 Este 26 Este 0 984.5 -- --
2020-11-05 22:00:00 12.1 11 Este 32 Este 0 984.9 -- --
2020-11-05 21:00:00 12.3 15 Este 30 Sudeste 0 984.2 -- --
2020-11-05 20:00:00 12.6 12 Sudeste 33 Este 0 983.7 -- --
2020-11-05 19:00:00 12.9 15 Nordeste 33 Este 0.4 983.5 -- --
2020-11-05 18:00:00 13.5 15 Nordeste 27 Este 3.2 984.1 -- --
2020-11-05 17:00:00 12.3 4 Sudeste 46 Sur 6.4 984.4 -- --
2020-11-05 16:00:00 14.9 21 Este 45 Este 0 982.9 -- --
2020-11-05 15:00:00 14.7 15 Este 29 Este 0.2 983.1 -- --
2020-11-05 14:00:00 14.3 13 Este 28 Este 0.6 983.9 -- --
2020-11-05 13:00:00 13.5 9 Este 22 Este 1.8 984.6 -- --
2020-11-05 12:00:00 13 15 Este 31 Este 4.2 985.2 -- --
2020-11-05 11:00:00 13 11 Este 35 Este 1 985.6 -- --
2020-11-05 10:00:00 13 19 Este 37 Este 0.2 985 -- --
2020-11-05 09:00:00 12.4 20 Este 42 Este 0.4 984.5 -- --
2020-11-05 08:00:00 12.5 19 Este 46 Este 0.2 983.8 -- --
2020-11-05 07:00:00 12.5 24 Este 45 Este 0.4 983.4 -- --
2020-11-05 06:00:00 12.6 27 Este 58 Este 1 983 -- --
2020-11-05 05:00:00 12.5 24 Este 48 Este 0.2 983.4 -- --
2020-11-05 04:00:00 12.3 22 Este 48 Este 0 984 -- --
2020-11-05 03:00:00 11.5 22 Este 43 Este 3 983.8 -- --
2020-11-05 02:00:00 11.9 16 Este 39 Este 1.2 984.3 -- --
2020-11-05 01:00:00 12.3 19 Este 37 Este 0 984.4 -- --
2020-11-05 00:00:00 11.9 16 Este 37 Este 0 984.7 -- --
2020-11-04 23:00:00 11.6 16 Este 31 Este 0.4 984.5 -- --
2020-11-04 22:00:00 11.7 14 Este 26 Nordeste 1.8 984.5 -- --
2020-11-04 21:00:00 11.5 12 Este 22 Nordeste 6 984.7 -- --
2020-11-04 20:00:00 11.4 5 Sur 32 Este 2.4 984.6 -- --
2020-11-04 19:00:00 11 21 Este 36 Este 2 982.7 -- --
2020-11-04 18:00:00 10.9 7 Sudeste 15 Este 0.2 983.4 -- --
2020-11-04 17:00:00 10.9 9 Este 32 Este 0.8 983.5 -- --
2020-11-04 16:00:00 10.4 17 Este 32 Sudeste 2.8 983.7 -- --
2020-11-04 15:00:00 10.5 13 Sudeste 30 Este 0.2 984.2 -- --
2020-11-04 14:00:00 10.4 12 Este 23 Nordeste 2.8 985 -- --
2020-11-04 13:00:00 10.7 9 Este 24 Este 2.4 985.4 -- --
2020-11-04 12:00:00 10.5 6 Este 24 Este 2 986.6 -- --
2020-11-04 11:00:00 13 14 Este 26 Este 3 986.6 -0.5 70
2020-11-04 10:00:00 -- 12 Este 24 Este 3.4 987.4 -- 67
2020-11-04 09:00:00 -- 12 Este 26 Este 0 987.1 -- 53
2020-11-04 08:00:00 -- 9 Este 19 Este 0 987.1 -- 56
2020-11-04 07:00:00 -- 10 Este 20 Este 0 987.6 -- 56
2020-11-04 06:00:00 -- 5 Este 18 Este 0 988.3 -- 61
2020-11-04 05:00:00 -- 8 Este 15 Este 0 988.6 -- 62
2020-11-04 04:00:00 -- 6 Nordeste 18 Este 0 989.5 -- 59
2020-11-04 03:00:00 -- 10 Nordeste 17 Este 0 990.1 -- 61
2020-11-04 02:00:00 -9 8 Nordeste 15 Este 0 990.6 -- 62
2020-11-04 01:00:00 -- 8 Este 18 Este 0 991.5 -- 59
2020-11-04 00:00:00 12.5 9 Este 25 Este 0 992.1 -- 55
2020-11-03 23:00:00 -- 12 Este 31 Este 0 992.2 -- 50
2020-11-03 22:00:00 -- 13 Sudeste 27 Sudeste 0 992.3 -- 49
2020-11-03 21:00:00 -- 14 Este 28 Este 0 992.3 -- 46
2020-11-03 20:00:00 -- 10 Sudeste 19 Sudeste 0 991.9 -- 50
2020-11-03 19:00:00 -- 7 Este 18 Este 0 991.8 -- 45
2020-11-03 18:00:00 -- 8 Este 15 Este 0 991.4 -- 38
2020-11-03 17:00:00 -- 5 Este 12 Este 0 991.3 -- 45
2020-11-03 16:00:00 -- -- -- -- -- -- 991.2 -- 40
2020-11-03 15:00:00 -- 3 Este 14 Sudeste 0 991.6 -- 35
2020-11-03 14:00:00 -- 8 Sudeste 23 Sudeste 0 992 -- 20
2020-11-03 13:00:00 -- 2 Sudoeste 9 Sudoeste 0 992.3 -- 56
2020-11-03 12:00:00 -- 4 Sudeste 9 Este 0 992.5 -- 53
2020-11-03 11:00:00 -- 0 Calma 6 Norte 0 992.4 -- 59
2020-11-03 10:00:00 -- 3 Nordeste 5 Norte 0 992.4 -- 73
2020-11-03 09:00:00 -- 0 Calma 7 Noroeste 0 991.8 -- 68
2020-11-03 08:00:00 -- 2 Noroeste 12 Noroeste 0 991.1 -- 75
2020-11-03 07:00:00 -- 8 Sudeste 18 Sudeste 0 990.5 -- 76
2020-11-03 06:00:00 -- 4 Oeste 9 Nordeste 0 991 -- 75
2020-11-03 05:00:00 -- 2 Nordeste 4 Norte 0 990.8 -- 80
2020-11-03 04:00:00 -- 0 Calma 3 Oeste 0 990.6 -- 79
2020-11-03 03:00:00 -- 0 Calma 4 Sur 0 990.8 -- 79
2020-11-03 02:00:00 -- 2 Sur 4 Oeste 0 990.7 -- 78
2020-11-03 01:00:00 -- 3 Oeste 7 Sudoeste 0 990.8 -- 78
2020-11-03 00:00:00 -- 3 Noroeste 7 Noroeste 0 990.8 -- 77
2020-11-02 23:00:00 -0.7 0 Calma 6 Sur 0 990.9 -- 73
2020-11-02 22:00:00 -13.6 3 Sur 7 Este 0 991 -- 72
2020-11-02 21:00:00 -- 4 Sur 12 Sur 0 991 -- 68
2020-11-02 20:00:00 -- 5 Sur 8 Sur 0 991.1 -- 67
2020-11-02 19:00:00 -- 4 Sur 5 Sur 0 990.6 -- 53
2020-11-02 18:00:00 -- 2 Oeste 5 Oeste 0 990.4 -- 55
2020-11-02 17:00:00 -- 0 Calma 9 Norte 0 990.3 -- 58
2020-11-02 16:00:00 -- 3 Norte 9 Noroeste 0 990.3 -- 57
2020-11-02 15:00:00 -- 3 Norte 9 Nordeste 0 990.4 -- 55
2020-11-02 14:00:00 -- 2 Noroeste 10 Nordeste 0 990.9 -- 58
2020-11-02 13:00:00 -- 0 Calma 7 Sur 0 991.8 -- 63
2020-11-02 12:00:00 -- 3 Sudeste 8 Este 0 992.4 -- 70
2020-11-02 11:00:00 -- 4 Norte 8 Nordeste 0 992.5 -- 67
2020-11-02 10:00:00 -- 4 Nordeste 8 Este 0 992.3 -- 71
2020-11-02 09:00:00 -- 2 Nordeste 5 Nordeste 0 991.7 -- 79
2020-11-02 08:00:00 -- 0 Calma 6 Sudeste 0 991.1 -- 76
2020-11-02 07:00:00 -- 3 Este 9 Nordeste 0 991.1 -- 67
2020-11-02 06:00:00 -- 3 Este 7 Este 0 991.1 -- 72
2020-11-02 05:00:00 -- 4 Este 6 Este 0 990.9 -- 74
2020-11-02 04:00:00 -- 4 Nordeste 7 Nordeste 0 990.9 -- 74
2020-11-02 03:00:00 -- 4 Nordeste 6 Nordeste 0 991.2 -- 68
2020-11-02 02:00:00 -- 2 Sur 9 Sudeste 0 991.3 -- 78
2020-11-02 01:00:00 -- 3 Sudeste 8 Este 0 991.8 -- 78
2020-11-02 00:00:00 -- 6 Nordeste 8 Nordeste 0 991.7 -- 76
2020-11-01 23:00:00 -- 4 Sudoeste 9 Sudoeste 0 991.9 -- 73
2020-11-01 22:00:00 -- 0 Calma 5 Sudoeste 0 991.9 -- 72
2020-11-01 21:00:00 -- 3 Sudoeste 4 Norte 0 991.7 -- 72
2020-11-01 20:00:00 -- 3 Sudoeste 5 Sudeste 0 991.6 -- 65
2020-11-01 19:00:00 -- 2 Sudeste 3 Sudeste 0 991.5 -- 59
2020-11-01 18:00:00 -- 0 Calma 6 Noroeste 0 991.5 -- 49
2020-11-01 17:00:00 -- 3 Noroeste 10 Norte 0 991.6 -- 47
2020-11-01 16:00:00 -- 5 Noroeste 13 Oeste 0 991.9 -- 45
2020-11-01 15:00:00 -- 5 Oeste 15 Noroeste 0 992.2 -- 47
2020-11-01 14:00:00 -- 3 Oeste 9 Oeste 0 992.7 -- 40
2020-11-01 13:00:00 -- 3 Nordeste 7 Nordeste 0 993.6 -- 53
2020-11-01 12:00:00 -- 3 Oeste 8 Sudoeste 0 994.5 -- 69
2020-11-01 11:00:00 1.1 3 Nordeste 11 Nordeste 0 994.8 -- 81
2020-11-01 10:00:00 -- 6 Nordeste 9 Nordeste 0 994.6 -- 83
2020-11-01 09:00:00 -- 2 Sur 6 Este 0 994 -- 78
2020-11-01 08:00:00 -- 4 Sudeste 6 Este 0 993.4 -- 78
2020-11-01 07:00:00 -6.2 4 Nordeste 7 Nordeste 0 993.1 -- 85
2020-11-01 06:00:00 -16.8 3 Nordeste 4 Nordeste 0 993 -- 84
2020-11-01 05:00:00 -- 0 Calma 6 Sudeste 0 992.9 -- 82
2020-11-01 04:00:00 -- 2 Este 7 Sudeste 0 993 -- 86
2020-11-01 03:00:00 7.9 3 Sudeste 6 Sudeste 0 993.2 -- 86
2020-11-01 02:00:00 -1.8 0 Calma 5 Noroeste 0 993.5 -- 85
2020-11-01 01:00:00 -6.8 3 Norte 15 Sudeste 0 993.7 -- 83
2020-11-01 00:00:00 -0.2 3 Oeste 7 Noroeste 0 993.8 -- 80
2020-10-31 23:00:00 -11.7 3 Noroeste 6 Noroeste 0 993.7 -- 77
2020-10-31 22:00:00 -17.4 4 Oeste 10 Oeste 0 993.2 -- 73
2020-10-31 21:00:00 19.2 7 Sudoeste 10 Sudoeste 0 992.7 -- 69
2020-10-31 20:00:00 -10.2 5 Sudoeste 13 Sudoeste 0 992.9 -- 63
2020-10-31 19:00:00 -7.2 5 Sudoeste 7 Oeste 0 992.6 -- 60
2020-10-31 18:00:00 -- 2 Oeste 11 Oeste 0 992.1 -- 40
2020-10-31 17:00:00 -- 4 Oeste 14 Oeste 0 992 -- 38
2020-10-31 16:00:00 -- 6 Sudoeste 13 Sudoeste 0 992 -- 36
2020-10-31 15:00:00 -- 5 Sudoeste 9 Oeste 0 992.3 -- 36
2020-10-31 14:00:00 -- 4 Sudeste 12 Este 0 992.9 -- 38
2020-10-31 13:00:00 -- 6 Sudeste 16 Este 0 994 -- 44
2020-10-31 12:00:00 -- 9 Este 15 Este 0 994.5 -- 51
2020-10-31 11:00:00 -13.7 8 Este 18 Sudeste 0 994.6 -- 58
2020-10-31 10:00:00 15.6 6 Este 12 Este 0 995 -- 71
2020-10-31 09:00:00 9 5 Este 9 Nordeste 0 994.7 -- 83
2020-10-31 08:00:00 -- 6 Nordeste 18 Norte 0 994 -- 86
2020-10-31 07:00:00 7.4 6 Nordeste 21 Este 0 993.5 -- 84
2020-10-31 06:00:00 -- 7 Sudeste 11 Sudeste 0 993.4 -- 78
2020-10-31 05:00:00 -0.6 5 Este 8 Este 0 993.1 -- 86
2020-10-31 04:00:00 9.6 3 Norte 6 Nordeste 0 993.2 -- 91
2020-10-31 03:00:00 10.5 5 Sudeste 10 Sudeste 0 993.3 -- 91
2020-10-31 02:00:00 11.1 4 Este 10 Este 0 993.3 -- 91
2020-10-31 01:00:00 11.5 6 Nordeste 18 Este 0 993.5 -- 90
2020-10-31 00:00:00 12.1 7 Sudeste 10 Sudeste 0 993.3 -- 89
2020-10-30 23:00:00 13 3 Sudeste 11 Este 0 993.3 -- 86
2020-10-30 22:00:00 13.7 8 Este 11 Este 0 993.2 -- 84
2020-10-30 21:00:00 13.9 4 Sudeste 7 Nordeste 0 992.7 -- 82
2020-10-30 20:00:00 15.2 5 Nordeste 9 Este 0 992.7 -- 76
2020-10-30 19:00:00 17.3 4 Nordeste 6 Nordeste 0 992.5 -- 67
2020-10-30 18:00:00 20.9 3 Sudeste 13 Este 0 992.2 -- 54
2020-10-30 17:00:00 22 8 Este 17 Este 0 992.2 -- 50
2020-10-30 16:00:00 22.3 9 Este 18 Este 0 992.5 -- 47
2020-10-30 15:00:00 21.8 8 Este 19 Este 0 992.9 -- 49
2020-10-30 14:00:00 20.6 10 Este 22 Este 0 993.6 -- 52
2020-10-30 13:00:00 19.1 10 Este 24 Este 0 994.4 -- 56
2020-10-30 12:00:00 17.3 13 Este 28 Este 0 995.1 -- 60
2020-10-30 11:00:00 15.4 16 Este 28 Este 0 995.4 -- 66
2020-10-30 10:00:00 13.6 12 Este 23 Este 0 995.6 -- 72
2020-10-30 09:00:00 11.3 11 Este 23 Este 0 995.3 -- 82
2020-10-30 08:00:00 9.1 7 Este 15 Este 0 994.7 -- 88
2020-10-30 07:00:00 9.6 10 Este 18 Este 0 994.6 -- 87
2020-10-30 06:00:00 9.3 11 Nordeste 18 Este 0 994.4 -- 88
2020-10-30 05:00:00 9.6 9 Este 14 Este 0 994.1 -- 88
2020-10-30 04:00:00 9.9 6 Este 17 Este 0 994.3 -- 87
2020-10-30 03:00:00 10.2 8 Este 16 Este 0 994.3 -- 88
2020-10-30 02:00:00 10.5 8 Nordeste 13 Este 0 994.3 -- 88
2020-10-30 01:00:00 10.7 8 Nordeste 12 Este 0 994.4 -- 88
2020-10-30 00:00:00 11.2 6 Este 10 Este 0 994.6 -- 86
2020-10-29 23:00:00 12.1 5 Este 14 Sudeste 0 994.7 -- 84
2020-10-29 22:00:00 12.7 6 Este 10 Este 0 994.5 -- 83
2020-10-29 21:00:00 13.9 6 Este 12 Nordeste 0 994.1 -- 79
2020-10-29 20:00:00 14.9 6 Nordeste 9 Nordeste 0 994 -- 75
2020-10-29 19:00:00 16.7 7 Este 10 Este 0 993.7 -- 67
2020-10-29 18:00:00 19.5 7 Este 17 Este 0 993.4 -- 56
2020-10-29 17:00:00 20.8 11 Este 21 Sudeste 0 993.3 -- 49
2020-10-29 16:00:00 21 9 Este 19 Este 0 993.3 -- 49
2020-10-29 15:00:00 20.7 10 Este 28 Nordeste 0 993.5 -- 48
2020-10-29 14:00:00 20.5 12 Este 27 Este 0 994 -- 52
2020-10-29 13:00:00 19.6 14 Este 32 Nordeste 0 994.8 -- 54
2020-10-29 12:00:00 18.8 14 Este 27 Este 0 995.5 -- 62
2020-10-29 11:00:00 17.2 15 Este 23 Este 0 995.6 -- 71
2020-10-29 10:00:00 15 13 Este 21 Este 0 995.5 -- 83
2020-10-29 09:00:00 12.8 7 Este 13 Este 0 995.2 -- 93
2020-10-29 08:00:00 11.5 7 Este 12 Este 0 994.7 -- 93
2020-10-29 07:00:00 11 4 Este 8 Este 0 994.2 -- 93
2020-10-29 06:00:00 9.8 3 Nordeste 9 Nordeste 0 993.9 -- 93
2020-10-29 05:00:00 9.3 0 Calma 10 Nordeste 0 993.5 -- 93
2020-10-29 04:00:00 10 4 Noroeste 9 Este 0 993.4 -- 93
2020-10-29 03:00:00 10.3 5 Sudeste 8 Sudeste 0 993.4 -- 92
2020-10-29 02:00:00 10.5 3 Este 5 Este 0 993.3 -- 91
2020-10-29 01:00:00 11.3 4 Este 7 Nordeste 0 993.3 -- 91
2020-10-29 00:00:00 12.2 4 Nordeste 6 Este 0 993.2 -- 91
2020-10-28 23:00:00 13 6 Este 8 Este 0 993 -- 90
2020-10-28 22:00:00 14 2 Este 8 Nordeste 0 993 -- 90
2020-10-28 21:00:00 14.8 4 Nordeste 11 Nordeste 0 992.6 -- 87
2020-10-28 20:00:00 16.2 5 Sudoeste 14 Oeste 0 992.2 -- 85
2020-10-28 19:00:00 16.5 10 Oeste 17 Sudoeste 0 991.7 -- 84
2020-10-28 18:00:00 16.8 10 Oeste 20 Sudoeste 0 991.2 -- 81
2020-10-28 17:00:00 18 8 Noroeste 20 Oeste 0 990.8 -- 75
2020-10-28 16:00:00 18.5 12 Oeste 30 Oeste 0 990.5 -- 72
2020-10-28 15:00:00 18.3 11 Oeste 23 Oeste 0 990.8 -- 71
2020-10-28 14:00:00 17.9 11 Oeste 20 Sudoeste 0 991.4 -- 76
2020-10-28 13:00:00 15.7 7 Oeste 16 Oeste 0 992 -- 84
2020-10-28 12:00:00 15.2 6 Norte 12 Norte 0 992.2 -- 88
2020-10-28 11:00:00 14.3 4 Noroeste 10 Oeste 0.2 991.8 -- 90
2020-10-28 10:00:00 13.9 5 Noroeste 13 Oeste 0 991.6 -- 90
2020-10-28 09:00:00 13.3 4 Oeste 11 Oeste 0 990.9 -- 91
2020-10-28 08:00:00 12.8 3 Oeste 8 Oeste 0 990 -- 89
2020-10-28 07:00:00 12.5 3 Noroeste 9 Sudoeste 0 989.5 -- 88
2020-10-28 06:00:00 12.3 3 Sudoeste 5 Noroeste 0 989.1 -- 85
2020-10-28 05:00:00 12.6 2 Noroeste 5 Oeste 0 988.9 -- 84
2020-10-28 04:00:00 12.6 0 Calma 6 Norte 0 989 -- 83
2020-10-28 03:00:00 12.7 3 Norte 6 Norte 0 989.2 -- 83
2020-10-28 02:00:00 12.8 3 Norte 10 Oeste 0 989.1 -- 82
2020-10-28 01:00:00 13.7 4 Noroeste 19 Oeste 0 989.2 -- 77
2020-10-28 00:00:00 14 10 Oeste 20 Sudoeste 0 989.3 -- 75
2020-10-27 23:00:00 13.5 12 Oeste 22 Oeste 0 989.1 -- 77
2020-10-27 22:00:00 13.9 14 Oeste 26 Sudoeste 0 988.8 -- 73
2020-10-27 21:00:00 13.9 14 Oeste 27 Oeste 0 988.5 -- 73
2020-10-27 20:00:00 13.9 12 Oeste 26 Oeste 0 988.6 -- 71
2020-10-27 19:00:00 14.3 13 Oeste 28 Oeste 0 988.4 -- 68
2020-10-27 18:00:00 15.1 15 Oeste 35 Oeste 0 988.3 -- 64
2020-10-27 17:00:00 16.4 13 Oeste 38 Oeste 0 988.4 -- 59
2020-10-27 16:00:00 16.5 18 Oeste 42 Oeste 0 988.4 -- 57
2020-10-27 15:00:00 16.3 18 Oeste 42 Oeste 0 988.3 -- 55
2020-10-27 14:00:00 16.4 21 Oeste 41 Oeste 0 988.8 -- 57
2020-10-27 13:00:00 16.8 15 Oeste 33 Oeste 0 989.4 -- 53
2020-10-27 12:00:00 14.1 5 Noroeste 14 Norte 0 990 -- 62
2020-10-27 11:00:00 12.3 5 Noroeste 17 Noroeste 0 990 -- 66
2020-10-27 10:00:00 10.6 8 Noroeste 17 Noroeste 0 990 -- 73
2020-10-27 09:00:00 7.9 3 Norte 8 Nordeste 0 989.7 -- 87
2020-10-27 08:00:00 5.2 4 Nordeste 9 Nordeste 0 989.2 -- 90
2020-10-27 07:00:00 4.6 2 Sudoeste 7 Este 0 988.9 -- 89
2020-10-27 06:00:00 5.1 4 Este 14 Oeste 0 989 -- 89
2020-10-27 05:00:00 5 3 Oeste 7 Nordeste 0 988.8 -- 88
2020-10-27 04:00:00 5.7 5 Oeste 11 Oeste 0 988.9 -- 87
2020-10-27 03:00:00 6 5 Oeste 12 Oeste 0 989.3 -- 85
2020-10-27 02:00:00 6.6 8 Oeste 12 Oeste 0 989.5 -- 84
2020-10-27 01:00:00 7.2 2 Oeste 11 Oeste 0 989.4 -- 80
2020-10-27 00:00:00 8.8 5 Norte 17 Oeste 0 989.7 -- 74
2020-10-26 23:00:00 10.2 12 Oeste 23 Oeste 0 989.5 -- 68
2020-10-26 22:00:00 10.8 13 Oeste 23 Oeste 0 989.5 -- 65
2020-10-26 21:00:00 11.3 13 Oeste 21 Sudoeste 0 989.1 -- 60
2020-10-26 20:00:00 11.7 13 Sudoeste 21 Noroeste 0 989.1 -- 57
2020-10-26 19:00:00 12.7 10 Oeste 22 Noroeste 0 988.4 -- 52
2020-10-26 18:00:00 15 8 Oeste 33 Oeste 0 988 -- 46
2020-10-26 17:00:00 16.8 14 Oeste 35 Oeste 0 987.8 -- 41
2020-10-26 16:00:00 15.7 18 Oeste 36 Oeste 0 987.5 -- 45
2020-10-26 15:00:00 16.5 16 Oeste 36 Sudoeste 0 987.4 -- 42
2020-10-26 14:00:00 17.5 11 Oeste 30 Oeste 0 987.5 -- 38
2020-10-26 13:00:00 17 8 Noroeste 24 Oeste 0 987.7 -- 35
2020-10-26 12:00:00 16.2 3 Sudoeste 25 Noroeste 0 987.9 -- 36
2020-10-26 11:00:00 14.7 11 Oeste 31 Oeste 0 987.6 -- 48
2020-10-26 10:00:00 12.3 19 Oeste 32 Oeste 0 987 -- 60
2020-10-26 09:00:00 10.6 18 Oeste 41 Oeste 0 986.6 -- 67
2020-10-26 08:00:00 9.1 15 Oeste 46 Oeste 0 985.6 -- 74
2020-10-26 07:00:00 9.3 20 Oeste 46 Oeste 0 984.5 -- 77
2020-10-26 06:00:00 9.3 21 Oeste 35 Oeste 0 984.5 -- 79
2020-10-26 05:00:00 9.5 14 Oeste 36 Noroeste 0 984.5 -- 77
2020-10-26 04:00:00 10.1 18 Oeste 33 Oeste 0 984 -- 78
2020-10-26 03:00:00 10.1 15 Oeste 32 Oeste 0 983.8 -- 78
2020-10-26 02:00:00 10.7 19 Oeste 32 Oeste 0 983.7 -- 78
2020-10-26 01:00:00 11.4 13 Oeste 30 Oeste 0 983.6 -- 74
2020-10-26 00:00:00 11.9 11 Oeste 29 Oeste 0 983.6 -- 79